Barr, Illinois
Current Conditions -  °F | °C
As of 4:35 AM on Tuesday 27 Jan 2015 (Local Time) from K3LF Reporting Station
Scattered Clouds Scattered Clouds  
Wind Chill: 24°   Ceiling: Unl
Heat Index: 32°   Visibility: 7mi
Dew Point: 30°   Wind: 9mph
Humidity: 92%   Direction: 340°NNW
Pressure: 29.98"   Gusts: NA
Location:  39.3923°N, 89.9237°W
Report Text: K3LF 271035Z AUTO 34008KT 7SM SCT038 SCT100 00/M01 A2998 RMK AO2 T00001011
Loading
Personal Weather Stations






























Interactive Weather Map New forecast layout! Learn more

10-Day Weather Forecast

Advertisements
Track Severe Weather on mobile